Time;durP1;ratioP1;P1;durP2;ratioP2;P2;SDS_P1;SDS_P2;PMS_P1;PMS_P2;Temp;Humidity;BMP_temperature;BMP_pressure;BME280_temperature;BME280_humidity;BME280_pressure;Samples;Min_cycle;Max_cycle;Signal;HPM_P1;HPM_P2
2021/05/12 00:01:20;;;;;;;1.70;1.60;;;11.00;90.40;;;;;;5024331;28;20042;-76
2021/05/12 00:03:45;;;;;;;1.60;1.50;;;11.00;90.30;;;;;;5022910;28;20060;-76
2021/05/12 00:06:11;;;;;;;1.77;1.55;;;11.00;90.30;;;;;;5022805;28;21745;-75
2021/05/12 00:08:37;;;;;;;1.50;1.40;;;11.10;90.30;;;;;;5022637;28;20017;-76
2021/05/12 00:11:02;;;;;;;1.75;1.65;;;11.00;90.20;;;;;;5021279;28;20095;-76
2021/05/12 00:13:28;;;;;;;1.70;1.48;;;11.00;90.20;;;;;;5024424;28;20384;-77
2021/05/12 00:15:54;;;;;;;1.90;1.77;;;11.00;90.20;;;;;;5022801;28;20029;-74
2021/05/12 00:18:22;;;;;;;1.60;1.50;;;11.00;90.30;;;;;;5019138;28;20065;-75
2021/05/12 00:20:48;;;;;;;1.58;1.48;;;11.00;90.20;;;;;;5027717;28;20018;-75
2021/05/12 00:23:18;;;;;;;2.00;1.75;;;11.00;90.30;;;;;;5020752;28;20029;-75
2021/05/12 00:25:43;;;;;;;1.67;1.58;;;11.00;90.20;;;;;;5024012;28;20021;-76
2021/05/12 00:28:09;;;;;;;2.42;1.60;;;11.00;90.40;;;;;;5041481;28;20033;-76
2021/05/12 00:30:35;;;;;;;1.63;1.52;;;10.90;90.20;;;;;;5023083;28;20066;-75
2021/05/12 00:33:01;;;;;;;1.20;1.20;;;10.90;90.30;;;;;;5019682;28;20105;-76
2021/05/12 00:35:27;;;;;;;1.63;1.52;;;10.90;90.40;;;;;;5017108;28;20026;-75
2021/05/12 00:37:52;;;;;;;2.88;1.55;;;10.90;90.40;;;;;;5020496;28;20517;-76
2021/05/12 00:40:19;;;;;;;1.40;1.30;;;10.90;90.40;;;;;;5018931;28;20541;-75
2021/05/12 00:42:45;;;;;;;1.60;1.50;;;11.00;90.30;;;;;;5018072;28;20044;-76
2021/05/12 00:45:13;;;;;;;1.52;1.42;;;11.00;90.20;;;;;;5019772;28;20030;-75
2021/05/12 00:47:40;;;;;;;1.25;1.25;;;10.90;90.30;;;;;;5027926;28;20071;-74
2021/05/12 00:50:08;;;;;;;1.63;1.52;;;10.90;90.30;;;;;;5022193;28;20041;-77
2021/05/12 00:52:34;;;;;;;1.58;1.48;;;10.90;90.40;;;;;;5022768;28;20124;-75
2021/05/12 00:55:00;;;;;;;1.60;1.50;;;10.90;90.30;;;;;;5021474;28;20129;-75
2021/05/12 00:57:26;;;;;;;1.70;1.60;;;10.80;90.50;;;;;;5019932;28;20064;-74
2021/05/12 00:59:53;;;;;;;1.58;1.48;;;10.80;90.60;;;;;;5021372;28;20032;-76
2021/05/12 01:02:19;;;;;;;1.90;1.40;;;10.70;90.70;;;;;;5022636;28;20061;-76
2021/05/12 01:04:45;;;;;;;1.70;1.58;;;10.70;90.90;;;;;;5028523;28;20044;-75
2021/05/12 01:07:11;;;;;;;1.38;1.27;;;10.70;90.60;;;;;;5045862;28;20025;-77
2021/05/12 01:09:36;;;;;;;1.13;1.13;;;10.70;90.80;;;;;;5019428;28;20041;-75
2021/05/12 01:12:03;;;;;;;0.90;0.90;;;10.70;90.60;;;;;;5020394;28;20064;-76
2021/05/12 01:14:29;;;;;;;0.98;0.98;;;10.70;90.60;;;;;;5019510;28;20044;-76
2021/05/12 01:16:56;;;;;;;1.27;1.20;;;10.70;90.40;;;;;;5022820;28;20029;-76
2021/05/12 01:19:22;;;;;;;1.00;0.95;;;10.70;90.40;;;;;;5027764;28;20029;-76
2021/05/12 01:21:47;;;;;;;0.80;0.80;;;10.70;90.20;;;;;;5023020;28;20033;-75
2021/05/12 01:24:13;;;;;;;0.50;0.50;;;10.70;90.30;;;;;;5023343;28;20183;-75
2021/05/12 01:26:39;;;;;;;0.50;0.50;;;10.60;90.50;;;;;;5014764;28;20037;-76
2021/05/12 01:29:06;;;;;;;0.40;0.40;;;10.60;90.60;;;;;;5021534;28;20063;-75
2021/05/12 01:31:44;;;;;;;0.60;0.60;;;10.60;90.70;;;;;;5021638;28;20503;-75
2021/05/12 01:34:15;;;;;;;0.90;0.90;;;10.70;90.70;;;;;;5023986;28;20057;-75
2021/05/12 01:36:41;;;;;;;1.02;1.02;;;10.70;90.80;;;;;;5021847;28;20056;-76
2021/05/12 01:39:07;;;;;;;1.10;1.00;;;10.60;90.70;;;;;;5024641;28;20036;-76
2021/05/12 01:41:33;;;;;;;1.10;1.10;;;10.70;90.80;;;;;;5023581;28;20515;-75
2021/05/12 01:44:01;;;;;;;1.00;1.00;;;10.70;90.80;;;;;;5024297;28;20114;-76
2021/05/12 01:46:26;;;;;;;1.37;1.27;;;10.60;90.80;;;;;;5024272;28;20340;-75
2021/05/12 01:48:52;;;;;;;1.58;1.30;;;10.70;90.90;;;;;;5018486;28;20284;-75
2021/05/12 01:51:18;;;;;;;1.10;1.10;;;10.70;90.80;;;;;;5024639;28;20057;-75
2021/05/12 01:53:44;;;;;;;1.20;1.10;;;10.70;90.90;;;;;;5022870;28;20029;-75
2021/05/12 01:56:11;;;;;;;1.27;1.17;;;10.70;90.80;;;;;;5019312;28;20037;-74
2021/05/12 01:58:37;;;;;;;1.13;1.10;;;10.80;90.70;;;;;;5024097;28;20056;-76
2021/05/12 02:01:04;;;;;;;1.60;1.50;;;10.80;90.70;;;;;;5022968;28;20034;-75
2021/05/12 02:03:29;;;;;;;1.10;1.10;;;10.80;90.70;;;;;;5029294;28;20095;-75
2021/05/12 02:05:55;;;;;;;1.40;1.30;;;10.80;90.80;;;;;;5025548;28;20029;-75
2021/05/12 02:08:24;;;;;;;1.88;1.48;;;10.80;90.80;;;;;;5022200;28;20029;-75
2021/05/12 02:10:53;;;;;;;1.10;1.10;;;10.70;90.80;;;;;;5023580;28;20163;-73
2021/05/12 02:13:19;;;;;;;1.10;1.10;;;10.70;90.80;;;;;;5024183;28;20033;-73
2021/05/12 02:15:45;;;;;;;1.75;1.20;;;10.70;90.80;;;;;;5024513;28;20040;-75
2021/05/12 02:18:12;;;;;;;1.75;1.30;;;10.70;90.80;;;;;;5023436;28;20025;-75
2021/05/12 02:20:38;;;;;;;1.20;1.20;;;10.70;90.90;;;;;;5028376;28;20597;-75
2021/05/12 02:23:08;;;;;;;1.15;1.15;;;10.70;90.90;;;;;;5024758;28;20060;-74
2021/05/12 02:25:35;;;;;;;1.10;1.10;;;10.70;91.00;;;;;;5025945;28;20033;-75
2021/05/12 02:28:00;;;;;;;1.10;1.10;;;10.70;90.90;;;;;;5020929;28;20048;-74
2021/05/12 02:30:26;;;;;;;1.10;1.00;;;10.70;91.00;;;;;;5029396;28;20025;-74
2021/05/12 02:32:53;;;;;;;1.10;1.10;;;10.70;91.00;;;;;;5023426;28;20053;-74
2021/05/12 02:35:19;;;;;;;2.35;1.30;;;10.70;90.90;;;;;;5024821;28;20613;-74
2021/05/12 02:37:46;;;;;;;1.98;0.95;;;10.70;90.90;;;;;;5023843;28;20033;-76
2021/05/12 02:40:15;;;;;;;1.38;1.27;;;10.70;91.00;;;;;;5029463;28;20156;-74
2021/05/12 02:42:41;;;;;;;0.90;0.90;;;10.70;90.90;;;;;;5025543;28;20021;-74
2021/05/12 02:45:08;;;;;;;1.20;1.10;;;10.70;90.90;;;;;;5025338;28;20038;-76
2021/05/12 02:47:34;;;;;;;1.00;1.00;;;10.70;90.90;;;;;;5023902;28;20041;-74
2021/05/12 02:50:01;;;;;;;1.20;1.20;;;10.80;91.00;;;;;;5024208;28;20515;-75
2021/05/12 02:52:27;;;;;;;1.05;1.00;;;10.70;90.90;;;;;;5022832;28;20030;-75
2021/05/12 02:54:52;;;;;;;1.00;1.00;;;10.70;90.90;;;;;;5022469;28;20036;-73
2021/05/12 02:57:19;;;;;;;0.90;0.90;;;10.80;91.00;;;;;;5022877;28;20048;-74
2021/05/12 02:59:45;;;;;;;1.10;0.98;;;10.80;91.00;;;;;;5021852;28;20428;-74
2021/05/12 03:02:11;;;;;;;0.70;0.70;;;10.70;91.00;;;;;;5023056;28;20080;-75
2021/05/12 03:04:36;;;;;;;0.90;0.90;;;10.70;91.00;;;;;;5028875;28;20036;-76
2021/05/12 03:07:03;;;;;;;0.95;0.95;;;10.80;90.90;;;;;;5021862;28;20485;-74
2021/05/12 03:09:28;;;;;;;1.23;0.93;;;10.80;90.90;;;;;;5027462;28;20091;-75
2021/05/12 03:11:54;;;;;;;0.80;0.80;;;10.70;91.00;;;;;;5022564;28;20026;-76
2021/05/12 03:14:21;;;;;;;3.50;0.93;;;10.70;91.20;;;;;;5024247;28;20369;-76
2021/05/12 03:16:47;;;;;;;0.73;0.73;;;10.70;91.10;;;;;;5019305;28;20105;-75
2021/05/12 03:19:13;;;;;;;1.00;1.00;;;10.70;91.20;;;;;;5022494;28;20187;-74
2021/05/12 03:21:39;;;;;;;1.15;1.00;;;10.70;91.10;;;;;;5028076;28;20017;-74
2021/05/12 03:24:05;;;;;;;0.90;0.90;;;10.70;91.00;;;;;;5025967;28;20543;-75
2021/05/12 03:26:33;;;;;;;6.80;1.25;;;10.80;91.00;;;;;;5021187;28;20033;-75
2021/05/12 03:29:00;;;;;;;1.15;1.10;;;10.70;91.10;;;;;;5019119;28;20029;-76
2021/05/12 03:31:25;;;;;;;0.80;0.80;;;10.70;91.10;;;;;;5020026;28;20412;-76
2021/05/12 03:33:55;;;;;;;0.88;0.88;;;10.70;91.10;;;;;;5026323;28;20029;-75
2021/05/12 03:36:24;;;;;;;0.80;0.80;;;10.70;91.10;;;;;;5028151;28;20099;-75
2021/05/12 03:38:51;;;;;;;0.75;0.75;;;10.80;91.10;;;;;;5019554;28;20058;-75
2021/05/12 03:41:16;;;;;;;0.90;0.90;;;10.70;91.00;;;;;;5021535;28;20040;-75
2021/05/12 03:43:42;;;;;;;2.40;0.88;;;10.70;91.10;;;;;;5024748;28;20029;-76
2021/05/12 03:46:08;;;;;;;0.90;0.90;;;10.70;91.20;;;;;;5025150;28;20034;-75
2021/05/12 03:48:33;;;;;;;0.85;0.85;;;10.70;91.20;;;;;;5021042;28;20492;-74
2021/05/12 03:50:59;;;;;;;0.80;0.80;;;10.70;91.30;;;;;;5024587;28;20052;-74
2021/05/12 03:53:25;;;;;;;0.85;0.85;;;10.70;91.30;;;;;;5023922;28;20037;-74
2021/05/12 03:55:51;;;;;;;1.48;1.08;;;10.70;91.20;;;;;;5026213;28;20029;-75
2021/05/12 03:58:17;;;;;;;1.00;1.00;;;10.70;91.20;;;;;;5016642;28;20068;-75
2021/05/12 04:00:45;;;;;;;1.52;1.42;;;10.80;91.20;;;;;;5034166;28;20094;-74
2021/05/12 04:03:10;;;;;;;1.02;1.02;;;10.80;91.20;;;;;;5024392;28;20053;-75
2021/05/12 04:05:36;;;;;;;1.60;1.10;;;10.80;91.20;;;;;;5024760;28;20466;-75
2021/05/12 04:08:03;;;;;;;1.20;1.10;;;10.80;91.30;;;;;;5021208;28;20037;-75
2021/05/12 04:10:29;;;;;;;3.00;1.13;;;10.80;91.10;;;;;;5014793;28;20106;-76
2021/05/12 04:12:55;;;;;;;0.93;0.93;;;10.80;91.10;;;;;;5024099;28;20096;-76
2021/05/12 04:15:21;;;;;;;1.27;1.17;;;10.80;91.20;;;;;;5021511;28;20114;-76
2021/05/12 04:17:46;;;;;;;1.38;1.27;;;10.80;91.20;;;;;;5023676;28;20032;-76
2021/05/12 04:20:17;;;;;;;1.00;1.00;;;10.80;91.30;;;;;;5028428;28;20064;-76
2021/05/12 04:22:44;;;;;;;1.40;1.20;;;10.80;91.30;;;;;;5013468;28;20022;-75
2021/05/12 04:25:13;;;;;;;1.15;1.00;;;10.80;91.20;;;;;;5019377;28;20056;-75
2021/05/12 04:27:39;;;;;;;1.00;1.00;;;10.80;91.20;;;;;;5012156;28;20815;-76
2021/05/12 04:30:09;;;;;;;1.17;1.17;;;10.80;91.30;;;;;;5013310;28;20045;-75
2021/05/12 04:32:34;;;;;;;1.30;1.27;;;10.80;90.90;;;;;;5015298;28;20107;-75
2021/05/12 04:35:00;;;;;;;1.15;1.08;;;10.80;91.30;;;;;;5016177;28;20037;-76
2021/05/12 04:37:26;;;;;;;1.45;1.35;;;10.70;91.20;;;;;;5018140;28;20044;-76
2021/05/12 04:39:51;;;;;;;2.47;1.42;;;10.70;91.30;;;;;;5016411;28;20476;-76
2021/05/12 04:42:17;;;;;;;1.50;1.40;;;10.70;91.40;;;;;;5016902;28;20140;-75
2021/05/12 04:44:42;;;;;;;1.60;1.40;;;10.70;91.30;;;;;;5018505;28;20488;-75
2021/05/12 04:47:08;;;;;;;1.63;1.52;;;10.70;91.50;;;;;;5017630;28;20566;-75
2021/05/12 04:49:34;;;;;;;1.40;1.30;;;10.70;91.50;;;;;;5017013;28;20025;-75
2021/05/12 04:51:59;;;;;;;1.35;1.30;;;10.70;91.60;;;;;;5015766;28;20041;-74
2021/05/12 04:54:25;;;;;;;1.48;1.38;;;10.60;91.30;;;;;;5015274;28;20021;-76
2021/05/12 04:56:51;;;;;;;1.33;1.23;;;10.60;90.80;;;;;;5018455;28;20507;-75
2021/05/12 04:59:16;;;;;;;2.15;1.40;;;10.50;91.10;;;;;;5017196;28;20399;-75
2021/05/12 05:01:42;;;;;;;1.83;1.30;;;10.50;91.20;;;;;;5018247;28;20049;-76
2021/05/12 05:04:08;;;;;;;1.92;1.33;;;10.50;91.40;;;;;;5013809;28;20033;-75
2021/05/12 05:06:34;;;;;;;1.50;1.25;;;10.50;91.20;;;;;;5014608;28;20021;-75
2021/05/12 05:09:00;;;;;;;2.33;1.27;;;10.50;91.40;;;;;;5016152;28;20033;-76
2021/05/12 05:11:26;;;;;;;1.48;1.38;;;10.50;91.40;;;;;;5012404;28;20072;-75
2021/05/12 05:13:52;;;;;;;1.45;1.35;;;10.50;91.60;;;;;;5018233;28;20603;-76
2021/05/12 05:16:18;;;;;;;1.40;1.20;;;10.50;91.60;;;;;;5017190;28;20026;-75
2021/05/12 05:18:45;;;;;;;1.10;1.10;;;10.50;91.50;;;;;;5016551;28;20040;-74
2021/05/12 05:21:11;;;;;;;2.67;1.20;;;10.40;91.40;;;;;;5013126;28;20160;-76
2021/05/12 05:23:38;;;;;;;2.05;1.38;;;10.50;91.20;;;;;;5013964;28;20211;-77
2021/05/12 05:26:04;;;;;;;1.30;1.20;;;10.50;91.60;;;;;;5017022;28;20496;-74
2021/05/12 05:28:30;;;;;;;1.20;1.20;;;10.50;91.30;;;;;;5011083;28;20100;-75
2021/05/12 05:30:56;;;;;;;1.60;1.48;;;10.50;91.40;;;;;;5016384;28;22403;-77
2021/05/12 05:33:22;;;;;;;1.40;1.30;;;10.40;91.50;;;;;;5015078;28;20029;-77
2021/05/12 05:35:47;;;;;;;1.67;1.33;;;10.50;91.50;;;;;;5019177;28;20476;-76
2021/05/12 05:38:13;;;;;;;1.35;1.10;;;10.50;91.40;;;;;;5020867;28;20033;-76
2021/05/12 05:40:38;;;;;;;1.30;1.15;;;10.50;91.50;;;;;;5015929;28;20136;-77
2021/05/12 05:43:07;;;;;;;1.20;1.10;;;10.50;91.40;;;;;;5017968;28;20052;-75
2021/05/12 05:45:33;;;;;;;;;;;10.60;91.40;;;;;;5021895;28;20075;-75
2021/05/12 05:47:59;;;;;;;1.27;1.17;;;10.50;91.40;;;;;;5019600;28;19905;-76
2021/05/12 05:50:25;;;;;;;2.10;1.17;;;10.50;91.40;;;;;;5022739;28;20037;-76
2021/05/12 05:52:54;;;;;;;1.00;1.00;;;10.60;91.50;;;;;;5024170;28;20049;-75
2021/05/12 05:55:19;;;;;;;1.05;1.05;;;10.50;91.40;;;;;;5020786;28;20660;-75
2021/05/12 05:57:46;;;;;;;0.90;0.90;;;10.50;91.30;;;;;;5019695;28;20033;-76
2021/05/12 06:00:13;;;;;;;1.05;0.98;;;10.50;91.40;;;;;;5021497;28;20508;-75
2021/05/12 06:02:39;;;;;;;1.52;1.23;;;10.50;91.20;;;;;;5019421;28;20039;-75
2021/05/12 06:05:05;;;;;;;1.27;1.10;;;10.50;91.50;;;;;;5015730;28;20030;-74
2021/05/12 06:07:31;;;;;;;2.60;1.10;;;10.50;91.60;;;;;;5022776;28;20017;-75
2021/05/12 06:09:56;;;;;;;1.35;1.10;;;10.50;91.20;;;;;;5017304;28;20080;-75
2021/05/12 06:12:22;;;;;;;1.27;1.02;;;10.50;91.00;;;;;;5022121;28;20033;-74
2021/05/12 06:14:48;;;;;;;1.02;1.00;;;10.50;91.50;;;;;;5019287;28;20669;-75
2021/05/12 06:17:13;;;;;;;2.28;1.02;;;10.40;91.40;;;;;;5017752;28;20029;-75
2021/05/12 06:19:39;;;;;;;2.85;1.08;;;10.50;91.30;;;;;;5019980;28;20529;-76
2021/05/12 06:22:05;;;;;;;0.93;0.93;;;10.50;90.90;;;;;;5027785;28;20017;-75
2021/05/12 06:24:30;;;;;;;0.80;0.80;;;10.40;91.20;;;;;;5014911;28;20064;-76
2021/05/12 06:26:57;;;;;;;0.90;0.90;;;10.40;91.40;;;;;;5020910;28;20032;-75
2021/05/12 06:29:22;;;;;;;1.13;0.90;;;10.40;91.30;;;;;;5012136;28;20033;-75
2021/05/12 06:31:49;;;;;;;1.40;1.30;;;10.40;91.20;;;;;;5015419;28;20488;-75
2021/05/12 06:34:14;;;;;;;1.13;1.00;;;10.40;91.30;;;;;;5013870;28;20400;-76
2021/05/12 06:36:40;;;;;;;1.33;0.98;;;10.50;91.30;;;;;;5013569;28;20033;-75
2021/05/12 06:39:06;;;;;;;0.70;0.70;;;10.50;91.40;;;;;;5013063;28;20056;-77
2021/05/12 06:41:32;;;;;;;1.10;0.93;;;10.50;91.40;;;;;;5012877;28;20025;-76
2021/05/12 06:43:59;;;;;;;1.10;1.10;;;10.50;91.30;;;;;;5014339;28;20033;-77
2021/05/12 06:46:25;;;;;;;1.42;1.33;;;10.50;91.20;;;;;;5014239;28;20021;-76
2021/05/12 06:48:51;;;;;;;2.10;0.93;;;10.50;91.40;;;;;;5013686;28;20132;-75
2021/05/12 06:51:18;;;;;;;1.00;1.00;;;10.50;91.30;;;;;;5022531;28;20044;-76
2021/05/12 06:53:43;;;;;;;1.30;1.20;;;10.50;91.40;;;;;;5015990;28;20024;-75
2021/05/12 06:56:09;;;;;;;2.03;1.20;;;10.50;91.30;;;;;;5011683;28;20045;-74
2021/05/12 06:58:35;;;;;;;1.73;1.13;;;10.50;91.50;;;;;;5011415;28;20080;-75
2021/05/12 07:01:01;;;;;;;2.67;1.65;;;10.50;91.50;;;;;;5014301;28;20132;-76
2021/05/12 07:03:27;;;;;;;1.20;1.10;;;10.50;91.50;;;;;;5013499;28;20037;-76
2021/05/12 07:05:54;;;;;;;1.10;1.00;;;10.50;91.50;;;;;;5012804;28;20030;-76
2021/05/12 07:08:23;;;;;;;1.85;1.30;;;10.50;91.40;;;;;;5010530;28;20091;-76
2021/05/12 07:10:49;;;;;;;2.00;1.40;;;10.60;91.60;;;;;;5011455;28;20021;-76
2021/05/12 07:13:15;;;;;;;1.40;1.23;;;10.60;91.50;;;;;;5013163;28;20013;-77
2021/05/12 07:15:41;;;;;;;1.35;1.17;;;10.60;91.60;;;;;;5014356;28;20045;-77
2021/05/12 07:18:06;;;;;;;1.33;1.30;;;10.60;91.60;;;;;;5011443;28;20040;-77
2021/05/12 07:20:32;;;;;;;1.85;1.58;;;10.60;91.20;;;;;;5012351;28;20067;-75
2021/05/12 07:23:09;;;;;;;1.27;1.17;;;10.60;91.60;;;;;;5011259;28;20098;-75
2021/05/12 07:25:36;;;;;;;1.63;1.13;;;10.60;91.70;;;;;;5026216;28;20823;-76
2021/05/12 07:28:02;;;;;;;1.33;1.23;;;10.60;91.50;;;;;;5008254;28;20108;-76
2021/05/12 07:30:28;;;;;;;1.30;1.20;;;10.60;91.40;;;;;;5012800;28;20044;-76
2021/05/12 07:32:54;;;;;;;1.63;1.45;;;10.60;91.60;;;;;;5019539;28;20031;-76
2021/05/12 07:35:20;;;;;;;1.40;1.30;;;10.60;91.70;;;;;;5018033;28;20064;-76
2021/05/12 07:37:46;;;;;;;2.10;1.40;;;10.60;91.60;;;;;;5015837;28;20052;-75
2021/05/12 07:40:12;;;;;;;2.35;1.55;;;10.60;91.60;;;;;;5016334;28;20034;-75
2021/05/12 07:42:40;;;;;;;2.65;1.50;;;10.60;91.40;;;;;;5011399;28;20033;-76
2021/05/12 07:45:07;;;;;;;2.20;2.00;;;10.60;91.40;;;;;;5012066;28;20313;-76
2021/05/12 07:47:32;;;;;;;1.65;1.48;;;10.60;91.40;;;;;;5012972;28;20033;-77
2021/05/12 07:49:58;;;;;;;2.45;1.67;;;10.70;91.90;;;;;;5013159;28;20017;-77
2021/05/12 07:52:24;;;;;;;2.00;1.75;;;10.70;91.60;;;;;;5010878;28;20389;-76
2021/05/12 07:54:49;;;;;;;1.70;1.60;;;10.70;91.40;;;;;;5011429;28;20035;-76
2021/05/12 07:57:15;;;;;;;2.10;1.60;;;10.80;91.60;;;;;;5011633;28;20033;-76
2021/05/12 07:59:41;;;;;;;2.03;1.52;;;10.70;91.60;;;;;;5012131;28;20376;-77
2021/05/12 08:02:07;;;;;;;2.00;1.90;;;10.70;91.30;;;;;;5021091;28;20166;-77
2021/05/12 08:04:34;;;;;;;2.00;1.80;;;10.70;91.40;;;;;;5011287;28;20037;-76
2021/05/12 08:07:00;;;;;;;1.98;1.77;;;10.80;91.70;;;;;;5013935;28;20025;-76
2021/05/12 08:09:26;;;;;;;2.80;1.88;;;10.80;91.80;;;;;;5010188;28;20083;-76
2021/05/12 08:11:52;;;;;;;2.33;1.73;;;10.80;91.60;;;;;;5011560;28;20112;-77
2021/05/12 08:14:18;;;;;;;2.00;1.80;;;10.90;91.40;;;;;;5010283;28;20438;-75
2021/05/12 08:16:47;;;;;;;4.15;1.83;;;10.90;91.40;;;;;;5010131;28;20076;-75
2021/05/12 08:19:13;;;;;;;;;;;11.00;91.70;;;;;;5026309;28;20033;-76
2021/05/12 08:21:39;;;;;;;1.55;1.45;;;10.90;91.40;;;;;;5009466;28;20048;-76
2021/05/12 08:24:06;;;;;;;2.20;1.63;;;10.90;91.30;;;;;;5015149;28;20140;-76
2021/05/12 08:26:32;;;;;;;2.72;1.80;;;10.90;91.50;;;;;;5015847;28;20033;-76
2021/05/12 08:29:01;;;;;;;1.70;1.60;;;10.90;91.60;;;;;;5007537;28;20026;-77
2021/05/12 08:31:27;;;;;;;1.70;1.60;;;10.90;91.20;;;;;;5011750;28;20041;-76
2021/05/12 08:33:53;;;;;;;2.55;1.80;;;11.00;91.20;;;;;;5011641;28;20091;-76
2021/05/12 08:36:19;;;;;;;1.60;1.50;;;10.90;91.50;;;;;;5010211;28;20017;-76
2021/05/12 08:38:46;;;;;;;3.28;1.67;;;11.00;91.30;;;;;;5009088;28;20673;-76
2021/05/12 08:41:17;;;;;;;2.35;1.80;;;10.90;91.20;;;;;;5009862;28;20422;-75
2021/05/12 08:43:43;;;;;;;1.60;1.45;;;10.90;91.10;;;;;;5014826;28;20014;-76
2021/05/12 08:46:13;;;;;;;3.22;1.95;;;10.90;91.50;;;;;;5007310;28;20029;-75
2021/05/12 08:48:40;;;;;;;2.10;1.90;;;10.90;91.00;;;;;;5012128;28;20727;-77
2021/05/12 08:51:08;;;;;;;3.60;1.77;;;10.90;90.90;;;;;;5019903;28;20499;-78
2021/05/12 08:53:34;;;;;;;2.70;1.98;;;10.90;91.30;;;;;;5015972;28;20052;-76
2021/05/12 08:56:01;;;;;;;2.53;2.15;;;10.90;91.50;;;;;;5013624;28;20029;-75
2021/05/12 08:58:28;;;;;;;3.00;2.13;;;11.00;91.60;;;;;;5008109;28;21060;-76
2021/05/12 09:00:54;;;;;;;3.13;2.15;;;11.00;90.70;;;;;;5008550;28;20761;-77
2021/05/12 09:03:20;;;;;;;3.60;2.47;;;10.90;91.10;;;;;;5012253;28;20029;-78
2021/05/12 09:05:47;;;;;;;1.90;1.80;;;11.00;91.40;;;;;;5012504;28;20762;-77
2021/05/12 09:08:14;;;;;;;2.20;2.00;;;11.00;91.00;;;;;;5012014;28;20037;-77
2021/05/12 09:10:40;;;;;;;3.88;2.30;;;11.10;91.00;;;;;;5009202;28;20104;-77
2021/05/12 09:13:05;;;;;;;2.80;2.47;;;11.10;91.60;;;;;;5011698;28;20028;-78
2021/05/12 09:15:31;;;;;;;2.38;2.17;;;11.20;91.80;;;;;;5011036;28;20407;-75
2021/05/12 09:18:02;;;;;;;3.42;2.60;;;11.20;91.40;;;;;;5009290;28;20518;-77
2021/05/12 09:20:39;;;;;;;3.30;2.83;;;11.30;91.20;;;;;;5008688;28;20381;-76
2021/05/12 09:23:11;;;;;;;2.45;2.22;;;11.30;91.40;;;;;;5009390;28;20033;-78
2021/05/12 09:25:40;;;;;;;3.25;2.40;;;11.30;90.90;;;;;;5009932;28;20581;-75
2021/05/12 09:28:17;;;;;;;4.15;2.50;;;11.30;90.60;;;;;;5011529;28;20124;-75
2021/05/12 09:30:46;;;;;;;3.47;2.70;;;11.20;90.20;;;;;;5010411;28;20158;-75
2021/05/12 09:33:32;;;;;;;3.72;3.00;;;11.20;90.50;;;;;;5009932;28;20041;-74
2021/05/12 09:35:59;;;;;;;3.83;2.63;;;11.20;89.60;;;;;;5009327;28;20136;-76
2021/05/12 09:38:30;;;;;;;4.88;2.75;;;11.20;90.10;;;;;;5011056;28;20151;-76
2021/05/12 09:41:02;;;;;;;3.60;2.58;;;11.20;90.50;;;;;;5014353;28;20035;-75
2021/05/12 09:43:30;;;;;;;4.43;3.00;;;11.20;90.30;;;;;;5018987;28;20021;-74
2021/05/12 09:46:15;;;;;;;2.85;2.20;;;11.30;90.50;;;;;;5011832;28;20036;-76
2021/05/12 09:48:47;;;;;;;2.75;2.40;;;11.30;90.50;;;;;;5008513;28;20017;-74
2021/05/12 09:51:20;;;;;;;3.38;2.60;;;11.30;90.00;;;;;;5009159;28;20030;-75
2021/05/12 09:54:00;;;;;;;3.35;3.00;;;11.20;89.40;;;;;;5012954;28;20029;-74
2021/05/12 09:56:37;;;;;;;5.60;3.05;;;11.20;90.60;;;;;;5008004;28;20033;-75
2021/05/12 09:59:12;;;;;;;3.50;2.67;;;11.20;89.50;;;;;;5009894;28;20037;-74
2021/05/12 10:01:46;;;;;;;3.25;2.92;;;11.10;89.80;;;;;;5010273;28;20045;-75
2021/05/12 10:04:32;;;;;;;3.03;2.72;;;11.20;90.40;;;;;;5010037;28;20025;-74
2021/05/12 10:07:01;;;;;;;4.43;3.00;;;11.20;90.80;;;;;;5009400;28;20136;-74
2021/05/12 10:09:28;;;;;;;3.40;3.10;;;11.20;90.70;;;;;;5009085;28;20052;-77
2021/05/12 10:12:06;;;;;;;4.28;2.92;;;11.20;90.00;;;;;;5011086;28;20033;-75
2021/05/12 10:14:34;;;;;;;4.60;3.33;;;11.20;90.50;;;;;;5011065;28;20029;-74
2021/05/12 10:17:00;;;;;;;4.85;3.33;;;11.30;90.50;;;;;;5012681;28;20045;-75
2021/05/12 10:19:26;;;;;;;4.25;3.22;;;11.30;90.00;;;;;;5011330;28;20109;-74
2021/05/12 10:21:53;;;;;;;3.22;2.90;;;11.30;90.40;;;;;;5011114;28;20110;-75
2021/05/12 10:24:18;;;;;;;4.00;3.30;;;11.30;88.60;;;;;;5013373;28;20032;-75
2021/05/12 10:26:45;;;;;;;4.50;2.92;;;11.30;90.10;;;;;;5012803;28;20029;-76
2021/05/12 10:29:17;;;;;;;4.35;3.58;;;11.30;90.10;;;;;;5013455;28;20034;-74
2021/05/12 10:31:43;;;;;;;6.10;3.40;;;11.30;89.10;;;;;;5012451;28;20124;-76
2021/05/12 10:34:08;;;;;;;4.28;3.45;;;11.30;90.00;;;;;;5015031;28;20029;-74
2021/05/12 10:36:34;;;;;;;4.55;3.25;;;11.40;90.30;;;;;;5013050;28;20029;-76
2021/05/12 10:39:04;;;;;;;5.40;3.20;;;11.40;89.60;;;;;;5009810;28;20127;-75
2021/05/12 10:41:47;;;;;;;4.63;3.45;;;11.40;90.00;;;;;;5017717;28;20072;-75
2021/05/12 10:44:20;;;;;;;3.72;2.92;;;11.40;90.40;;;;;;5012427;28;20119;-75
2021/05/12 10:47:07;;;;;;;3.42;3.10;;;11.30;89.90;;;;;;5015058;28;20032;-74
2021/05/12 10:49:33;;;;;;;5.25;3.17;;;11.20;88.60;;;;;;5011806;28;20561;-74
2021/05/12 10:52:06;;;;;;;6.20;3.63;;;11.20;89.50;;;;;;5016094;28;20041;-75
2021/05/12 10:54:46;;;;;;;6.32;3.63;;;11.20;90.00;;;;;;5010828;28;20029;-75
2021/05/12 10:57:32;;;;;;;7.80;4.30;;;11.30;90.60;;;;;;5011678;28;20159;-75
2021/05/12 10:59:57;;;;;;;5.85;3.92;;;11.30;90.40;;;;;;5009527;28;20025;-76
2021/05/12 11:03:03;;;;;;;5.00;3.55;;;11.40;91.00;;;;;;5015235;28;20476;-75
2021/05/12 11:05:57;;;;;;;3.90;3.40;;;11.40;90.30;;;;;;5010984;28;20092;-76
2021/05/12 11:08:23;;;;;;;5.85;3.63;;;11.50;90.60;;;;;;5012608;28;20100;-76
2021/05/12 11:10:57;;;;;;;5.00;2.92;;;11.60;91.20;;;;;;5013029;28;20037;-74
2021/05/12 11:13:25;;;;;;;7.20;3.28;;;11.70;90.10;;;;;;5012829;28;20120;-74
2021/05/12 11:15:52;;;;;;;5.35;3.20;;;11.70;90.80;;;;;;5011745;28;20029;-76
2021/05/12 11:18:38;;;;;;;5.78;3.92;;;11.70;90.90;;;;;;5009538;28;20053;-75
2021/05/12 11:21:20;;;;;;;4.20;2.95;;;11.80;90.80;;;;;;4996532;28;20049;-75
2021/05/12 11:24:12;;;;;;;4.35;2.58;;;11.70;87.70;;;;;;5011872;28;20033;-76
2021/05/12 11:31:56;;;;;;;5.75;3.13;;;11.50;88.20;;;;;;5011828;28;20088;-75
2021/05/12 11:34:22;;;;;;;4.00;3.60;;;11.40;89.90;;;;;;5011156;28;20048;-75
2021/05/12 11:36:48;;;;;;;3.85;3.00;;;11.50;89.70;;;;;;5012898;28;20464;-75
2021/05/12 11:39:14;;;;;;;4.30;2.95;;;11.50;90.30;;;;;;5011190;28;20462;-74
2021/05/12 11:41:41;;;;;;;4.00;2.75;;;11.50;90.50;;;;;;5012399;28;20548;-74
2021/05/12 11:44:07;;;;;;;5.40;3.25;;;11.30;88.80;;;;;;5011909;28;20186;-75
2021/05/12 11:46:41;;;;;;;4.45;3.55;;;11.30;88.80;;;;;;5011257;28;20032;-75
2021/05/12 11:49:10;;;;;;;6.60;3.20;;;11.30;90.00;;;;;;5015589;28;20032;-75
2021/05/12 11:51:42;;;;;;;4.88;3.25;;;11.20;89.20;;;;;;5013089;28;20057;-74
2021/05/12 11:54:24;;;;;;;7.18;3.88;;;11.20;90.20;;;;;;5011180;28;20033;-74
2021/05/12 11:56:58;;;;;;;5.85;3.42;;;11.20;90.10;;;;;;5015645;28;20025;-74
2021/05/12 11:59:26;;;;;;;7.03;3.58;;;11.20;90.40;;;;;;5018050;28;20055;-74
2021/05/12 12:02:03;;;;;;;5.28;3.60;;;11.20;90.30;;;;;;5017277;28;20029;-74
2021/05/12 12:06:57;;;;;;;3.97;3.53;;;11.10;89.60;;;;;;5009489;28;20036;-76
2021/05/12 12:09:22;;;;;;;4.18;3.47;;;11.00;90.00;;;;;;5016777;28;20044;-76
2021/05/12 12:11:49;;;;;;;5.63;3.67;;;11.10;90.30;;;;;;5012848;28;20029;-74
2021/05/12 12:14:16;;;;;;;4.95;3.40;;;11.10;90.70;;;;;;5013223;28;20638;-75
2021/05/12 12:16:46;;;;;;;5.75;3.65;;;11.20;90.50;;;;;;5016622;28;20041;-76
2021/05/12 12:19:16;;;;;;;5.18;3.70;;;11.20;90.20;;;;;;5017666;28;20033;-76
2021/05/12 12:21:45;;;;;;;7.40;3.83;;;11.20;90.60;;;;;;5021018;28;20384;-75
2021/05/12 12:24:16;;;;;;;8.88;4.28;;;11.30;91.00;;;;;;5017676;28;20756;-75
2021/05/12 12:26:47;;;;;;;7.28;4.25;;;11.30;90.00;;;;;;5011837;28;20033;-76
2021/05/12 12:29:13;;;;;;;8.38;4.32;;;11.30;90.20;;;;;;5015829;28;20447;-75
2021/05/12 12:31:47;;;;;;;6.43;4.45;;;11.30;90.60;;;;;;5010887;28;20083;-76
2021/05/12 12:34:30;;;;;;;7.53;5.03;;;11.30;89.70;;;;;;5012534;28;20038;-75
2021/05/12 12:37:09;;;;;;;8.98;5.25;;;11.40;90.60;;;;;;5013571;28;20064;-75
2021/05/12 12:39:53;;;;;;;8.30;5.18;;;11.30;90.00;;;;;;5012010;28;20528;-76
2021/05/12 12:42:39;;;;;;;7.93;4.97;;;11.40;90.60;;;;;;5013145;28;20033;-76
2021/05/12 12:45:27;;;;;;;6.75;4.10;;;11.50;89.70;;;;;;5012286;28;20021;-75
2021/05/12 12:47:55;;;;;;;6.05;4.20;;;11.40;89.50;;;;;;5014720;28;20018;-73
2021/05/12 12:50:21;;;;;;;6.38;4.80;;;11.40;88.40;;;;;;5021193;28;20034;-74
2021/05/12 12:52:50;;;;;;;6.43;4.60;;;11.40;89.10;;;;;;5010890;28;20030;-75
2021/05/12 12:55:17;;;;;;;;;;;11.40;89.10;;;;;;5010537;28;20037;-75
2021/05/12 12:57:46;;;;;;;5.47;3.80;;;11.50;90.40;;;;;;5009378;28;19927;-74
2021/05/12 13:00:16;;;;;;;6.43;4.03;;;11.40;88.10;;;;;;5009491;28;20462;-73